Grand Strand Airport
KCRE : now visible

Airfield :











YOU CAN JOIN US ON...

 
LOGIN :

Register | Disclaimer

   EN    FR    IT 

 









Legend :    VFR   Marginal VFR   IFR   Intensive IFR   Very Intensive IFR
Visi :
Ceiling :
>= 8 km
>= 3000ft
5 to 8 km
1000 to 3000 ft
1500m to 5 km
500 to 1000 ft
800 to 1500m
200 to 500 ft
< 800m
< 200 ft
Symbols :   Thunderstorms  Fog  Heavy snow  Heavy precipitations  Wind > 20 kt






- Airport Elevation : 32 ft


KCRE - Grand Strand

CURRENT METAR :
  • 021053Z 17008KT 10SM SCT017 BKN030 OVC110 24/22 A2999 RMK AO1 RAE37 SLP155 P0013 T02440222

EXPIRED METARs :
  • 021014Z AUTO 17011G17KT 7SM -RA FEW016 BKN035 OVC070 24/22 A2999 RMK AO1 P0012 T02390222
  • 021006Z AUTO 16009G18KT 3SM -RA BR FEW007 OVC028 23/22 A2999 RMK AO1 P0012 T02330222
  • 020956Z AUTO 16011KT 1SM +RA BR FEW007 BKN016 OVC049 23/23 A2999 RMK AO1 P0007 T02330228
  • 020953Z AUTO 17011KT 1 1/4SM +RA BR SCT016 BKN036 OVC120 23/22 A2999 RMK AO1 PK WND 19028/0854 RAB0855E08B34 SLP157 P0032 T02330222
  • 020902Z AUTO 19017G28KT 9SM -RA SCT019 BKN035 OVC045 24/22 A3000 RMK AO1 PK WND 19028/0854 RAB0855 P0000 T02390217
  • 020853Z AUTO 18018G25KT 10SM SCT018 BKN023 OVC047 25/22 A3000 RMK AO1 RAE18 SLP158 P0000 60010 T02500222 55002
  • 020848Z AUTO 19015KT 10SM SCT020 BKN034 OVC080 25/22 A2999 RMK AO1 RAE18 P0000
  • 012153Z 15006KT 10SM BKN015 BKN120 26/22 A3009 RMK AO1 SLP190 T02560222

TAF KCRE
Valid from the 02 at 06:00 until the 03 at 06:00 UTC


020520Z 0206/0306 17014G21KT 5SM SHRA BR VCTS BKN020CB
FM020800 17014G21KT 6SM SHRA BR VCTS OVC015CB
FM021500 18010G17KT 6SM SHRA BR BKN010
FM022000 18010G17KT P6SM BKN020
FM030000 21009KT P6SM BKN040
KZJX FIR / North America



MET'MAP, your aeronautical weather chart ! - Copyright ORBIFLY December 2007 - Disclaimer

ORBIFLY MET'MAP TEAM :

Programming & Development : Alexandra Zaïnal
Original concept : Baudouin d'Aumeries
Technical & hardware support : Manuel Goepfert
Assistance : Marc-Olivier Méhu




SOURCES & CREDITS :

   NOAA       Earth
Advisory